Aeroporto :
LOGIN :

Iscrizione | Disclaimer

   EN    FR    IT 

 










Sommario :    VFR   VFR Marginale   IFR   IFR Intensivo   IFR Molto Intensivo
Visibilità : 
Base nubi : 
>= 8 km
>= 3000ft
5 / 8 km
1000 / 3000 ft
1500m / 5 km
500 / 1000 ft
800 / 1500m
200 / 500 ft
< 800m
< 200 ft
Simboli :   Temporali  Nebbia  Neve Forte  Precipitazioni Forti  Vento > 20 kt
SIGMETs :   Varie  Temporali  Ghiacco  Turbolenza  Onda orograficha  Ceneri Vulcaniche






- Altitudine del aeroporto : 39 ft
- Codice IATA : TRS


LIPQ - Friuli Venezia Giulia Apt. Trieste

ULTIMO METAR :
  • 131650Z 31003KT 9999 SCT020 BKN040 09/09 Q1002

METARs OBSOLETI :
  • 131620Z 29002KT 9999 BKN025 10/09 Q1001
  • 131550Z 29004KT 250V330 9999 FEW010 BKN025 10/09 Q1000
  • 131520Z 25008KT 9999 FEW010 BKN020 11/10 Q0999
  • 131450Z 22008KT 9999 SCT010 BKN020 12/11 Q0998
  • 131420Z 20004KT 9999 SCT010 BKN020 12/11 Q0998

TAF TAF LIPQ
Valido dal 13 a 12 ore il 14 a 12 ore UTC


131100Z 1312/1412 VRB05KT 9999 BKN030
TEMPO 1312/1318 SHRA



MetMap, La meteo Aeronautica in un colpo d'occhio ! - Copyright ORBIFLY Dicembre 2007 - Disclaimer

ORBIFLY MET'MAP TEAM :

Programmazione e sviluppo : Alexandra Zaïnal
Concezione e sviluppo : Baudouin d'Aumeries
Co-Programmazione e sviluppo : Marc-Olivier Méhu
Supporto tecnico e logistico : Manuel Goepfert
Aiuto per la traduzione : Arnaldo La Scala

Contatto : metmap@orbifly.com




FONTI E CREDITI :

   NOAA